Time;durP1;ratioP1;P1;durP2;ratioP2;P2;SDS_P1;SDS_P2;PMS_P1;PMS_P2;Temp;Humidity;BMP_temperature;BMP_pressure;BME280_temperature;BME280_humidity;BME280_pressure;Samples;Min_cycle;Max_cycle;Signal;HPM_P1;HPM_P2
2021/07/29 00:01:39;;;;;;;2.70;1.88;;;;;5.30;101344.00;;;;5108909;28;20036;-76
2021/07/29 00:04:06;;;;;;;4.80;2.40;;;;;5.20;101371.00;;;;5091506;28;20142;-76
2021/07/29 00:06:32;;;;;;;6.90;3.80;;;;;5.10;101373.00;;;;5109943;28;20118;-76
2021/07/29 00:08:59;;;;;;;7.13;3.05;;;;;5.10;101352.00;;;;5090726;28;20059;-75
2021/07/29 00:11:27;;;;;;;4.65;2.40;;;;;5.10;101376.00;;;;5091255;28;20412;-75
2021/07/29 00:13:57;;;;;;;6.45;2.60;;;;;5.00;101369.00;;;;5108579;28;20405;-74
2021/07/29 00:16:29;;;;;;;8.25;2.15;;;;;4.90;101367.00;;;;5105874;28;20027;-75
2021/07/29 00:19:09;;;;;;;3.45;2.30;;;;;4.90;101373.00;;;;5109064;28;20054;-76
2021/07/29 00:21:38;;;;;;;5.65;1.83;;;;;4.90;101411.00;;;;5107829;28;20375;-74
2021/07/29 00:24:05;;;;;;;4.18;2.30;;;;;5.00;101379.00;;;;5109892;28;20047;-76
2021/07/29 00:26:32;;;;;;;3.00;1.80;;;;;4.90;101396.00;;;;5109527;28;20044;-77
2021/07/29 00:29:00;;;;;;;3.90;1.63;;;;;4.80;101405.00;;;;5092887;28;20031;-76
2021/07/29 00:31:31;;;;;;;3.75;1.65;;;;;4.90;101408.00;;;;5105937;28;20093;-74
2021/07/29 00:33:57;;;;;;;3.92;1.40;;;;;4.90;101395.00;;;;5108196;28;20613;-75
2021/07/29 00:36:24;;;;;;;3.35;1.45;;;;;5.00;101409.00;;;;5110082;28;20482;-75
2021/07/29 00:38:51;;;;;;;4.82;1.67;;;;;5.00;101429.00;;;;5109923;28;20026;-76
2021/07/29 00:41:18;;;;;;;3.60;1.42;;;;;5.00;101404.00;;;;5108515;28;20102;-75
2021/07/29 00:43:45;;;;;;;2.67;1.15;;;;;5.10;101435.00;;;;5108139;28;20750;-75
2021/07/29 00:46:14;;;;;;;2.35;1.23;;;;;5.10;101429.00;;;;5106158;28;20023;-75
2021/07/29 00:48:42;;;;;;;5.80;1.08;;;;;5.10;101447.00;;;;5108637;28;20027;-77
2021/07/29 00:51:08;;;;;;;3.83;1.13;;;;;5.00;101447.00;;;;5092361;28;20474;-74
2021/07/29 00:53:35;;;;;;;5.30;1.15;;;;;5.00;101462.00;;;;5110184;28;20482;-76
2021/07/29 00:56:02;;;;;;;2.25;1.23;;;;;4.90;101450.00;;;;5108863;28;20040;-74
2021/07/29 00:58:29;;;;;;;7.50;1.33;;;;;4.90;101472.00;;;;5074057;28;20056;-77
2021/07/29 01:00:55;;;;;;;4.47;1.60;;;;;4.70;101472.00;;;;5109434;28;20036;-76
2021/07/29 01:03:22;;;;;;;5.22;1.88;;;;;4.70;101481.00;;;;5090407;28;20549;-76
2021/07/29 01:05:49;;;;;;;4.50;1.80;;;;;4.70;101489.00;;;;5109074;28;20107;-76
2021/07/29 01:08:15;;;;;;;4.43;2.10;;;;;4.60;101466.00;;;;5107821;28;20031;-76
2021/07/29 01:10:42;;;;;;;2.75;1.63;;;;;4.60;101455.00;;;;5089714;28;20024;-77
2021/07/29 01:13:08;;;;;;;6.93;2.33;;;;;4.60;101473.00;;;;5107525;28;20109;-75
2021/07/29 01:15:35;;;;;;;5.95;1.80;;;;;4.50;101444.00;;;;5090017;28;20024;-77
2021/07/29 01:18:02;;;;;;;4.32;2.08;;;;;4.50;101471.00;;;;5090473;28;20042;-78
2021/07/29 01:20:30;;;;;;;7.32;2.22;;;;;4.50;101511.00;;;;5090993;28;20019;-76
2021/07/29 01:22:57;;;;;;;4.10;1.80;;;;;4.40;101496.00;;;;5109264;28;20059;-77
2021/07/29 01:25:23;;;;;;;6.70;2.03;;;;;4.40;101485.00;;;;5106998;28;20031;-77
2021/07/29 01:27:50;;;;;;;3.13;1.40;;;;;4.30;101479.00;;;;5107899;28;20038;-76
2021/07/29 01:30:16;;;;;;;5.93;2.42;;;;;4.30;101505.00;;;;5108040;28;20027;-76
2021/07/29 01:32:43;;;;;;;5.28;1.98;;;;;4.20;101482.00;;;;5110285;28;20035;-76
2021/07/29 01:35:11;;;;;;;4.32;1.73;;;;;4.20;101514.00;;;;5090350;28;20139;-77
2021/07/29 01:37:39;;;;;;;2.88;1.77;;;;;4.10;101524.00;;;;5089941;28;20040;-77
2021/07/29 01:40:07;;;;;;;7.53;1.92;;;;;4.10;101500.00;;;;5108767;28;20526;-77
2021/07/29 01:42:35;;;;;;;4.65;2.15;;;;;4.10;101542.00;;;;5089664;28;20063;-77
2021/07/29 01:45:02;;;;;;;3.00;1.70;;;;;4.10;101522.00;;;;5089732;28;20023;-76
2021/07/29 01:47:29;;;;;;;4.97;1.85;;;;;4.10;101516.00;;;;5108701;28;20059;-76
2021/07/29 01:49:56;;;;;;;5.38;1.92;;;;;4.10;101510.00;;;;5108322;28;20506;-74
2021/07/29 01:52:23;;;;;;;2.95;1.77;;;;;4.10;101536.00;;;;5108645;28;20119;-77
2021/07/29 01:54:49;;;;;;;9.02;2.28;;;;;4.00;101491.00;;;;5089279;28;20123;-75
2021/07/29 01:57:17;;;;;;;7.35;2.30;;;;;3.90;101519.00;;;;5108283;28;20019;-76
2021/07/29 01:59:43;;;;;;;4.10;2.50;;;;;3.90;101508.00;;;;5110250;28;20040;-77
2021/07/29 02:02:10;;;;;;;5.07;1.80;;;;;3.90;101486.00;;;;5108909;28;20057;-76
2021/07/29 02:04:37;;;;;;;4.82;1.98;;;;;4.00;101516.00;;;;5089636;28;20031;-76
2021/07/29 02:07:04;;;;;;;6.47;2.05;;;;;3.90;101531.00;;;;5110317;28;20393;-77
2021/07/29 02:09:30;;;;;;;3.35;1.75;;;;;4.00;101490.00;;;;5108216;28;20035;-76
2021/07/29 02:11:59;;;;;;;5.13;2.25;;;;;3.80;101519.00;;;;5111967;28;20020;-78
2021/07/29 02:14:28;;;;;;;4.13;1.88;;;;;3.80;101537.00;;;;5108504;28;20770;-75
2021/07/29 02:16:55;;;;;;;4.80;1.92;;;;;3.80;101521.00;;;;5093631;28;20027;-76
2021/07/29 02:19:21;;;;;;;3.95;2.00;;;;;3.80;101518.00;;;;5092781;28;20036;-75
2021/07/29 02:21:49;;;;;;;9.82;1.60;;;;;3.90;101520.00;;;;5108790;28;20036;-76
2021/07/29 02:24:15;;;;;;;6.93;1.60;;;;;3.80;101509.00;;;;5112622;28;20024;-77
2021/07/29 02:26:42;;;;;;;5.97;1.80;;;;;3.90;101507.00;;;;5092553;28;20505;-77
2021/07/29 02:29:08;;;;;;;3.60;1.50;;;;;3.90;101509.00;;;;5111003;28;20023;-76
2021/07/29 02:31:35;;;;;;;11.45;2.13;;;;;3.80;101512.00;;;;5111254;28;20660;-75
2021/07/29 02:34:01;;;;;;;4.95;1.75;;;;;3.70;101511.00;;;;5112526;28;20055;-78
2021/07/29 02:36:28;;;;;;;11.45;4.97;;;;;3.60;101517.00;;;;5110106;28;20035;-76
2021/07/29 02:38:54;;;;;;;5.45;1.83;;;;;3.60;101539.00;;;;5109398;28;20513;-76
2021/07/29 02:41:21;;;;;;;2.53;1.38;;;;;3.60;101535.00;;;;5075053;28;20432;-76
2021/07/29 02:43:48;;;;;;;6.70;2.40;;;;;3.60;101530.00;;;;5108357;28;20024;-77
2021/07/29 02:46:14;;;;;;;3.95;1.77;;;;;3.70;101522.00;;;;5108321;28;20032;-76
2021/07/29 02:48:41;;;;;;;4.88;1.63;;;;;3.70;101524.00;;;;5108186;28;20031;-77
2021/07/29 02:51:08;;;;;;;5.50;2.10;;;;;3.70;101508.00;;;;5108134;28;20039;-76
2021/07/29 02:53:34;;;;;;;3.65;1.42;;;;;3.70;101512.00;;;;5108320;28;20054;-77
2021/07/29 02:56:03;;;;;;;21.00;1.95;;;;;3.70;101504.00;;;;5108410;28;20033;-76
2021/07/29 02:58:29;;;;;;;4.25;1.60;;;;;3.70;101517.00;;;;5089547;28;20494;-76
2021/07/29 03:00:56;;;;;;;11.57;2.72;;;;;3.80;101511.00;;;;5109021;28;20031;-77
2021/07/29 03:03:22;;;;;;;5.68;1.83;;;;;3.80;101526.00;;;;5107968;28;20494;-76
2021/07/29 03:05:49;;;;;;;5.53;1.90;;;;;3.70;101503.00;;;;5107605;28;20019;-76
2021/07/29 03:08:15;;;;;;;6.05;1.75;;;;;3.70;101509.00;;;;5088670;28;20032;-76
2021/07/29 03:10:46;;;;;;;6.32;1.77;;;;;3.60;101535.00;;;;5108975;28;20036;-75
2021/07/29 03:13:13;;;;;;;5.50;1.40;;;;;3.60;101535.00;;;;5095317;28;20092;-80
2021/07/29 03:15:40;;;;;;;5.07;1.30;;;;;3.50;101539.00;;;;5113171;28;20474;-76
2021/07/29 03:18:07;;;;;;;6.47;1.73;;;;;3.50;101540.00;;;;5113658;28;20596;-77
2021/07/29 03:20:34;;;;;;;4.32;1.30;;;;;3.30;101532.00;;;;5095922;28;20031;-76
2021/07/29 03:23:00;;;;;;;3.60;1.40;;;;;3.20;101534.00;;;;5113544;28;20024;-76
2021/07/29 03:25:27;;;;;;;5.63;1.58;;;;;3.20;101529.00;;;;5112445;28;20040;-75
2021/07/29 03:27:53;;;;;;;5.15;1.40;;;;;3.30;101522.00;;;;5092572;28;20043;-76
2021/07/29 03:30:20;;;;;;;3.65;2.00;;;;;3.40;101500.00;;;;5092765;28;20031;-78
2021/07/29 03:32:46;;;;;;;5.15;1.35;;;;;3.30;101538.00;;;;5110912;28;20035;-76
2021/07/29 03:35:13;;;;;;;5.40;1.98;;;;;3.30;101515.00;;;;5111252;28;20034;-75
2021/07/29 03:37:39;;;;;;;6.10;1.63;;;;;3.30;101516.00;;;;5110520;28;20073;-76
2021/07/29 03:40:07;;;;;;;8.70;1.60;;;;;3.30;101526.00;;;;5111493;28;20110;-75
2021/07/29 03:42:34;;;;;;;10.48;2.33;;;;;3.30;101535.00;;;;5110904;28;20028;-77
2021/07/29 03:45:02;;;;;;;5.72;1.33;;;;;3.30;101547.00;;;;5093265;28;20383;-78
2021/07/29 03:47:28;;;;;;;6.53;1.80;;;;;3.40;101549.00;;;;5091720;28;20032;-78
2021/07/29 03:49:55;;;;;;;4.28;1.65;;;;;3.40;101550.00;;;;5093583;28;20483;-76
2021/07/29 03:52:22;;;;;;;5.88;1.52;;;;;3.30;101534.00;;;;5110232;28;20035;-76
2021/07/29 03:54:52;;;;;;;5.97;1.73;;;;;3.20;101543.00;;;;5112113;28;20023;-77
2021/07/29 03:57:22;;;;;;;5.05;1.58;;;;;3.20;101544.00;;;;5110050;28;20020;-77
2021/07/29 03:59:49;;;;;;;6.32;1.75;;;;;3.20;101548.00;;;;5111937;28;20040;-78
2021/07/29 04:02:16;;;;;;;5.60;1.80;;;;;3.20;101527.00;;;;5111336;28;20063;-77
2021/07/29 04:04:42;;;;;;;8.95;2.17;;;;;3.10;101560.00;;;;5111713;28;20024;-77
2021/07/29 04:07:09;;;;;;;13.32;2.00;;;;;3.10;101542.00;;;;5095027;28;20028;-77
2021/07/29 04:09:36;;;;;;;5.97;1.98;;;;;3.10;101553.00;;;;5110324;28;20034;-78
2021/07/29 04:12:03;;;;;;;8.57;2.10;;;;;3.10;101552.00;;;;5091977;28;20405;-77
2021/07/29 04:14:30;;;;;;;5.35;1.73;;;;;3.10;101546.00;;;;5092668;28;20173;-76
2021/07/29 04:16:57;;;;;;;4.88;2.00;;;;;3.10;101566.00;;;;5092163;28;20072;-77
2021/07/29 04:19:24;;;;;;;8.40;1.83;;;;;3.00;101549.00;;;;5110912;28;20042;-76
2021/07/29 04:21:50;;;;;;;4.03;2.42;;;;;3.00;101566.00;;;;5111366;28;20031;-77
2021/07/29 04:24:18;;;;;;;6.45;2.30;;;;;2.90;101546.00;;;;5111814;28;20035;-76
2021/07/29 04:26:45;;;;;;;3.88;1.92;;;;;2.90;101548.00;;;;5112487;28;20019;-76
2021/07/29 04:29:11;;;;;;;8.90;2.42;;;;;2.90;101562.00;;;;5111211;28;20505;-77
2021/07/29 04:31:38;;;;;;;9.05;2.20;;;;;3.00;101535.00;;;;5110941;28;20511;-78
2021/07/29 04:34:05;;;;;;;7.72;2.80;;;;;2.90;101535.00;;;;5111708;28;20032;-77
2021/07/29 04:36:37;;;;;;;8.38;2.47;;;;;2.80;101567.00;;;;5110728;28;20028;-77
2021/07/29 04:39:04;;;;;;;6.35;2.00;;;;;2.80;101554.00;;;;5110264;28;20059;-76
2021/07/29 04:41:31;;;;;;;6.70;1.60;;;;;2.70;101567.00;;;;5111610;28;20406;-76
2021/07/29 04:43:57;;;;;;;6.07;2.42;;;;;2.90;101545.00;;;;5110145;28;20115;-77
2021/07/29 04:46:24;;;;;;;5.95;1.83;;;;;2.90;101550.00;;;;5112008;28;20028;-76
2021/07/29 04:48:50;;;;;;;7.50;2.08;;;;;3.00;101561.00;;;;5110496;28;20046;-76
2021/07/29 04:51:17;;;;;;;5.18;1.88;;;;;2.90;101537.00;;;;5109839;28;20548;-77
2021/07/29 04:53:43;;;;;;;4.32;1.67;;;;;2.90;101567.00;;;;5091569;28;20081;-78
2021/07/29 04:56:10;;;;;;;7.80;2.03;;;;;2.90;101539.00;;;;5109798;28;20435;-76
2021/07/29 04:58:36;;;;;;;8.90;1.88;;;;;2.80;101546.00;;;;5110025;28;20382;-77
2021/07/29 05:01:04;;;;;;;8.50;1.92;;;;;2.80;101568.00;;;;5090804;28;20524;-77
2021/07/29 05:03:31;;;;;;;6.57;1.90;;;;;2.80;101550.00;;;;5109204;28;20080;-76
2021/07/29 05:06:00;;;;;;;5.80;1.58;;;;;2.80;101568.00;;;;5111620;28;20484;-77
2021/07/29 05:08:27;;;;;;;4.07;1.30;;;;;2.70;101564.00;;;;5111538;28;20037;-77
2021/07/29 05:10:54;;;;;;;7.60;1.63;;;;;2.80;101540.00;;;;5110251;28;20058;-76
2021/07/29 05:13:20;;;;;;;4.82;1.92;;;;;2.80;101568.00;;;;5111054;28;20039;-76
2021/07/29 05:15:47;;;;;;;6.70;1.80;;;;;2.80;101560.00;;;;5091596;28;20042;-76
2021/07/29 05:18:13;;;;;;;7.70;2.22;;;;;2.90;101548.00;;;;5109131;28;20038;-77
2021/07/29 05:20:40;;;;;;;5.65;1.60;;;;;2.80;101561.00;;;;5109702;28;20030;-77
2021/07/29 05:23:06;;;;;;;5.80;1.60;;;;;2.70;101543.00;;;;5092778;28;20050;-76
2021/07/29 05:25:36;;;;;;;8.18;1.70;;;;;2.70;101576.00;;;;5093786;28;20441;-76
2021/07/29 05:28:03;;;;;;;10.40;1.67;;;;;2.70;101536.00;;;;5110691;28;20027;-76
2021/07/29 05:30:29;;;;;;;5.82;1.55;;;;;2.80;101576.00;;;;5109574;28;20028;-77
2021/07/29 05:32:57;;;;;;;9.13;1.83;;;;;2.70;101541.00;;;;5109508;28;20024;-78
2021/07/29 05:35:23;;;;;;;6.57;1.73;;;;;2.70;101552.00;;;;5092998;28;20024;-77
2021/07/29 05:37:50;;;;;;;6.95;1.67;;;;;2.50;101565.00;;;;5109882;28;20478;-76
2021/07/29 05:40:16;;;;;;;5.13;1.20;;;;;2.50;101543.00;;;;5110733;28;20026;-76
2021/07/29 05:42:43;;;;;;;7.72;1.67;;;;;2.50;101546.00;;;;5110118;28;20024;-76
2021/07/29 05:45:10;;;;;;;8.40;1.83;;;;;2.50;101572.00;;;;5111269;28;20045;-77
2021/07/29 05:47:36;;;;;;;5.28;1.33;;;;;2.50;101577.00;;;;5110436;28;20043;-76
2021/07/29 05:50:04;;;;;;;4.45;1.50;;;;;2.40;101558.00;;;;5111040;28;20032;-75
2021/07/29 05:52:31;;;;;;;7.80;1.73;;;;;2.40;101582.00;;;;5111230;28;20505;-76
2021/07/29 05:54:59;;;;;;;8.20;1.67;;;;;2.50;101571.00;;;;5111265;28;20043;-77
2021/07/29 05:57:26;;;;;;;7.03;1.67;;;;;2.50;101584.00;;;;5090930;28;20090;-76
2021/07/29 05:59:52;;;;;;;7.38;1.65;;;;;2.40;101563.00;;;;5090103;28;20031;-77
2021/07/29 06:02:19;;;;;;;4.60;1.27;;;;;2.50;101534.00;;;;5108011;28;20050;-76
2021/07/29 06:04:45;;;;;;;5.45;1.60;;;;;2.60;101574.00;;;;5107877;28;20032;-76
2021/07/29 06:07:12;;;;;;;7.90;2.00;;;;;2.70;101561.00;;;;5089709;28;20055;-76
2021/07/29 06:09:38;;;;;;;10.40;1.60;;;;;2.60;101538.00;;;;5109806;28;20393;-75
2021/07/29 06:12:05;;;;;;;5.30;1.33;;;;;2.60;101574.00;;;;5108358;28;20034;-76
2021/07/29 06:14:32;;;;;;;6.22;1.48;;;;;2.60;101555.00;;;;5107850;28;20070;-77
2021/07/29 06:16:58;;;;;;;3.58;1.20;;;;;2.60;101563.00;;;;5107131;28;20038;-76
2021/07/29 06:19:33;;;;;;;4.78;1.38;;;;;2.50;101557.00;;;;5108678;28;20020;-77
2021/07/29 06:22:00;;;;;;;5.88;1.55;;;;;2.50;101547.00;;;;5108723;28;20073;-76
2021/07/29 06:24:27;;;;;;;7.68;1.60;;;;;2.50;101558.00;;;;5107088;28;20023;-76
2021/07/29 06:26:54;;;;;;;4.10;1.65;;;;;2.40;101568.00;;;;5107950;28;20103;-77
2021/07/29 06:29:21;;;;;;;7.47;1.60;;;;;2.40;101552.00;;;;5089473;28;20040;-77
2021/07/29 06:31:47;;;;;;;6.97;1.52;;;;;2.40;101577.00;;;;5108409;28;20055;-76
2021/07/29 06:40:57;;;;;;;4.13;1.27;;;;;2.30;101558.00;;;;5111189;28;20126;-76
2021/07/29 06:43:24;;;;;;;7.18;1.80;;;;;2.20;101543.00;;;;5109205;28;20056;-76
2021/07/29 06:45:51;;;;;;;7.47;1.90;;;;;2.20;101568.00;;;;5113053;28;20076;-76
2021/07/29 06:48:18;;;;;;;7.05;2.17;;;;;2.10;101561.00;;;;5114798;28;20028;-76
2021/07/29 06:50:44;;;;;;;7.90;2.25;;;;;2.10;101569.00;;;;5116316;28;20054;-76
2021/07/29 06:53:12;;;;;;;6.35;1.35;;;;;2.00;101534.00;;;;5117315;28;20095;-77
2021/07/29 06:55:38;;;;;;;5.28;1.83;;;;;2.00;101580.00;;;;5117910;28;20035;-76
2021/07/29 06:58:05;;;;;;;14.18;4.60;;;;;2.00;101552.00;;;;5116225;28;20027;-77
2021/07/29 07:00:32;;;;;;;15.00;4.93;;;;;2.10;101575.00;;;;5115995;28;20023;-78
2021/07/29 07:03:00;;;;;;;3.58;1.30;;;;;2.10;101574.00;;;;5095522;28;20161;-76
2021/07/29 07:05:26;;;;;;;4.60;1.48;;;;;2.00;101548.00;;;;5113781;28;20099;-76
2021/07/29 07:07:53;;;;;;;4.80;1.60;;;;;2.10;101543.00;;;;5111540;28;20513;-77
2021/07/29 07:10:19;;;;;;;4.03;1.30;;;;;2.10;101552.00;;;;5112730;28;20024;-76
2021/07/29 07:12:46;;;;;;;7.95;1.70;;;;;2.10;101535.00;;;;5096687;28;20077;-77
2021/07/29 07:15:13;;;;;;;7.55;1.30;;;;;2.20;101544.00;;;;5095440;28;20035;-77
2021/07/29 07:17:39;;;;;;;4.72;1.33;;;;;2.10;101560.00;;;;5113492;28;20023;-76
2021/07/29 07:20:06;;;;;;;8.10;1.38;;;;;2.10;101587.00;;;;5112839;28;20062;-76
2021/07/29 07:22:33;;;;;;;6.63;1.38;;;;;2.20;101551.00;;;;5113216;28;20032;-78
2021/07/29 07:25:00;;;;;;;13.13;1.98;;;;;2.10;101549.00;;;;5100008;28;20507;-76
2021/07/29 07:27:27;;;;;;;16.52;1.83;;;;;2.00;101556.00;;;;5119553;28;20035;-77
2021/07/29 07:29:53;;;;;;;6.03;1.38;;;;;2.10;101561.00;;;;5111706;28;20035;-77
2021/07/29 07:32:20;;;;;;;3.72;1.33;;;;;2.20;101548.00;;;;5112731;28;20032;-77
2021/07/29 07:34:47;;;;;;;4.40;1.30;;;;;2.10;101540.00;;;;5115835;28;20027;-77
2021/07/29 07:37:18;;;;;;;3.92;1.42;;;;;2.00;101535.00;;;;5116908;28;20048;-76
2021/07/29 07:39:44;;;;;;;3.63;1.30;;;;;1.90;101545.00;;;;5118023;28;20027;-76
2021/07/29 07:42:11;;;;;;;6.75;1.77;;;;;1.80;101559.00;;;;5117427;28;20039;-78
2021/07/29 07:44:38;;;;;;;5.05;1.52;;;;;1.80;101568.00;;;;5119640;28;20482;-77
2021/07/29 07:47:05;;;;;;;5.28;1.40;;;;;1.70;101552.00;;;;5115972;28;20034;-75
2021/07/29 07:49:33;;;;;;;6.55;2.00;;;;;1.60;101551.00;;;;5113673;28;20394;-77
2021/07/29 07:52:00;;;;;;;10.27;2.20;;;;;1.60;101548.00;;;;5117444;28;20126;-76
2021/07/29 07:54:27;;;;;;;16.88;2.67;;;;;1.40;101550.00;;;;5114252;28;20424;-76
2021/07/29 07:56:54;;;;;;;7.00;2.05;;;;;1.50;101535.00;;;;5094540;28;20122;-77
2021/07/29 07:59:20;;;;;;;10.73;2.53;;;;;1.60;101539.00;;;;5111070;28;20066;-77
2021/07/29 08:01:47;;;;;;;8.60;2.28;;;;;1.50;101544.00;;;;5095898;28;20028;-77
2021/07/29 08:04:13;;;;;;;4.97;1.65;;;;;1.60;101569.00;;;;5114212;28;20032;-76
2021/07/29 08:06:40;;;;;;;10.82;2.17;;;;;1.60;101563.00;;;;5112140;28;20020;-77
2021/07/29 08:09:07;;;;;;;5.88;1.90;;;;;1.70;101575.00;;;;5111825;28;20185;-77
2021/07/29 08:11:33;;;;;;;11.68;2.05;;;;;1.80;101547.00;;;;5111791;28;20023;-77
2021/07/29 08:14:00;;;;;;;9.52;2.88;;;;;1.80;101546.00;;;;5092879;28;20032;-77
2021/07/29 08:16:26;;;;;;;6.45;1.63;;;;;1.80;101568.00;;;;5114138;28;20448;-75
2021/07/29 08:18:54;;;;;;;8.27;2.08;;;;;1.70;101575.00;;;;5114626;28;20039;-76
2021/07/29 08:21:21;;;;;;;6.38;2.03;;;;;1.60;101582.00;;;;5096507;28;20122;-76
2021/07/29 08:23:47;;;;;;;22.15;3.13;;;;;1.60;101585.00;;;;5114783;28;20085;-76
2021/07/29 08:26:14;;;;;;;6.03;2.13;;;;;1.70;101558.00;;;;5093769;28;20076;-77
2021/07/29 08:28:42;;;;;;;6.90;1.80;;;;;1.70;101559.00;;;;5110646;28;20028;-76
2021/07/29 08:31:14;;;;;;;5.75;1.73;;;;;1.60;101584.00;;;;5098054;28;20047;-76
2021/07/29 08:33:41;;;;;;;11.07;3.13;;;;;1.60;101564.00;;;;5115212;28;20039;-77
2021/07/29 08:36:17;;;;;;;2.75;1.40;;;;;1.60;101571.00;;;;5092337;28;20635;-77
2021/07/29 08:38:45;;;;;;;8.75;2.25;;;;;1.70;101581.00;;;;5110299;28;20038;-77
2021/07/29 08:41:12;;;;;;;7.40;2.60;;;;;1.70;101560.00;;;;5114609;28;20077;-77
2021/07/29 08:43:38;;;;;;;10.27;2.17;;;;;1.80;101590.00;;;;5093022;28;20034;-76
2021/07/29 08:46:07;;;;;;;9.88;2.20;;;;;1.90;101579.00;;;;5110854;28;20398;-77
2021/07/29 08:48:36;;;;;;;7.65;2.00;;;;;1.70;101596.00;;;;5113930;28;20510;-77
2021/07/29 08:51:03;;;;;;;16.05;2.53;;;;;1.70;101598.00;;;;5113447;28;20549;-76
2021/07/29 08:53:30;;;;;;;7.13;1.88;;;;;1.70;101576.00;;;;5095190;28;20042;-76
2021/07/29 08:55:56;;;;;;;13.05;2.05;;;;;1.70;101555.00;;;;5110089;28;20428;-78
2021/07/29 08:58:23;;;;;;;12.23;2.78;;;;;1.70;101588.00;;;;5113730;28;20063;-76
2021/07/29 09:01:00;;;;;;;8.40;2.97;;;;;1.70;101607.00;;;;5094788;28;20047;-77
2021/07/29 09:03:27;;;;;;;6.28;1.70;;;;;1.70;101572.00;;;;5111900;28;20030;-76
2021/07/29 09:06:08;;;;;;;5.57;1.52;;;;;1.60;101594.00;;;;5113606;28;20072;-76
2021/07/29 09:08:57;;;;;;;7.82;2.20;;;;;1.70;101600.00;;;;5112600;28;20027;-76
2021/07/29 09:11:38;;;;;;;4.25;1.83;;;;;1.60;101608.00;;;;5095392;28;20084;-76
2021/07/29 09:14:14;;;;;;;8.07;1.80;;;;;1.60;101603.00;;;;5112659;28;20372;-77
2021/07/29 09:16:58;;;;;;;12.02;1.50;;;;;1.70;101592.00;;;;5091664;28;20547;-76
2021/07/29 09:19:41;;;;;;;13.95;2.63;;;;;1.80;101606.00;;;;5110149;28;20034;-76
2021/07/29 09:22:14;;;;;;;6.60;1.90;;;;;1.80;101606.00;;;;5110618;28;20398;-76
2021/07/29 09:25:20;;;;;;;12.40;2.38;;;;;1.80;101621.00;;;;5111013;28;20027;-76
2021/07/29 09:27:51;;;;;;;8.43;2.22;;;;;1.80;101596.00;;;;5111075;28;20492;-76
2021/07/29 09:30:22;;;;;;;6.47;2.03;;;;;1.60;101636.00;;;;5115731;28;20023;-77
2021/07/29 09:33:02;;;;;;;8.15;2.00;;;;;1.60;101628.00;;;;5112191;28;20494;-77
2021/07/29 09:35:37;;;;;;;22.73;2.50;;;;;1.50;101649.00;;;;5111765;28;20024;-76
2021/07/29 09:38:20;;;;;;;9.38;2.28;;;;;1.50;101627.00;;;;5112953;28;20486;-76
2021/07/29 09:40:48;;;;;;;8.43;2.00;;;;;1.60;101640.00;;;;5110905;28;20462;-76
2021/07/29 09:43:18;;;;;;;12.98;2.08;;;;;1.70;101621.00;;;;5110301;28;20024;-76
2021/07/29 09:45:46;;;;;;;7.90;2.15;;;;;1.70;101630.00;;;;5113023;28;20031;-77
2021/07/29 09:48:13;;;;;;;10.20;2.67;;;;;1.60;101622.00;;;;5108455;28;20049;-77
2021/07/29 09:50:41;;;;;;;29.48;3.05;;;;;1.60;101622.00;;;;5111072;28;20043;-76
2021/07/29 09:53:08;;;;;;;33.92;6.35;;;;;1.60;101650.00;;;;5110143;28;20110;-76
2021/07/29 09:55:35;;;;;;;7.95;2.20;;;;;1.60;101645.00;;;;5109659;28;20083;-76
2021/07/29 09:58:04;;;;;;;8.50;2.08;;;;;1.60;101661.00;;;;5108846;28;20051;-78
2021/07/29 10:00:33;;;;;;;24.38;7.30;;;;;1.60;101645.00;;;;5109718;28;20065;-79
2021/07/29 10:03:02;;;;;;;18.83;6.20;;;;;1.50;101667.00;;;;5092295;28;20027;-76
2021/07/29 10:06:09;;;;;;;8.93;3.42;;;;;1.40;101670.00;;;;5090019;28;20038;-77
2021/07/29 10:08:54;;;;;;;11.27;2.28;;;;;1.50;101662.00;;;;5091513;28;20410;-76
2021/07/29 10:11:24;;;;;;;10.85;3.42;;;;;1.40;101665.00;;;;5094050;28;20084;-77
2021/07/29 10:13:52;;;;;;;21.67;7.63;;;;;1.40;101674.00;;;;5112210;28;20046;-78
2021/07/29 10:16:48;;;;;;;12.30;2.55;;;;;1.50;101669.00;;;;5111168;28;20490;-76
2021/07/29 10:19:16;;;;;;;10.88;2.72;;;;;1.50;101651.00;;;;5110738;28;20026;-77
2021/07/29 10:21:44;;;;;;;23.17;6.65;;;;;1.60;101675.00;;;;5094284;28;20035;-77
2021/07/29 10:24:11;;;;;;;21.30;3.60;;;;;1.60;101688.00;;;;5112209;28;20660;-76
2021/07/29 10:26:59;;;;;;;21.83;4.43;;;;;1.70;101689.00;;;;5112644;28;20044;-76
2021/07/29 10:29:28;;;;;;;23.25;6.90;;;;;1.70;101676.00;;;;5093972;28;20413;-75
2021/07/29 10:32:10;;;;;;;21.35;9.75;;;;;1.80;101659.00;;;;5092932;28;20470;-75
2021/07/29 10:34:37;;;;;;;12.57;2.80;;;;;1.90;101687.00;;;;5111078;28;20512;-77
2021/07/29 10:37:08;;;;;;;7.95;3.05;;;;;2.00;101687.00;;;;5111349;28;20027;-76
2021/07/29 10:40:00;;;;;;;19.27;3.20;;;;;2.10;101706.00;;;;5110969;28;20020;-75
2021/07/29 10:42:27;;;;;;;;;;;;;2.20;101698.00;;;;5111064;28;20168;-74
2021/07/29 10:44:54;;;;;;;8.45;2.58;;;;;2.30;101683.00;;;;5111349;28;20002;-76
2021/07/29 10:47:41;;;;;;;23.27;3.33;;;;;3.10;101644.00;;;;5111040;28;20111;-76
2021/07/29 10:50:09;;;;;;;15.88;3.67;;;;;5.30;101513.00;;;;5110647;28;20035;-76
2021/07/29 10:52:37;;;;;;;14.25;3.15;;;;;6.50;101509.00;;;;5110437;28;20607;-77
2021/07/29 10:55:04;;;;;;;7.88;2.85;;;;;7.10;101493.00;;;;5111043;28;20042;-76
2021/07/29 10:57:31;;;;;;;6.20;2.88;;;;;7.40;101455.00;;;;5110416;28;20036;-76
2021/07/29 11:00:00;;;;;;;6.47;2.67;;;;;7.70;101509.00;;;;5110488;28;20032;-76
2021/07/29 11:02:49;;;;;;;10.27;2.67;;;;;7.90;101546.00;;;;5111311;28;20035;-77
2021/07/29 11:05:26;;;;;;;9.52;3.00;;;;;8.70;101497.00;;;;5110914;28;20080;-76
2021/07/29 11:07:53;;;;;;;12.73;2.90;;;;;7.90;101561.00;;;;5110442;28;20506;-77
2021/07/29 11:10:27;;;;;;;6.72;2.70;;;;;8.40;101511.00;;;;5092065;28;20072;-76
2021/07/29 11:12:54;;;;;;;17.20;4.28;;;;;8.80;101534.00;;;;5110464;28;20394;-76
2021/07/29 11:15:21;;;;;;;16.98;3.60;;;;;9.40;101535.00;;;;5091859;28;20035;-76
2021/07/29 11:17:47;;;;;;;8.48;3.40;;;;;9.20;101544.00;;;;5091953;28;20040;-76
2021/07/29 11:20:24;;;;;;;16.20;10.93;;;;;9.40;101516.00;;;;5110437;28;20085;-76
2021/07/29 11:22:51;;;;;;;8.13;2.85;;;;;10.20;101492.00;;;;5092435;28;20023;-74
2021/07/29 11:25:17;;;;;;;12.02;3.42;;;;;10.50;101490.00;;;;5110804;28;20052;-75
2021/07/29 11:27:44;;;;;;;8.07;3.03;;;;;10.80;101433.00;;;;5110219;28;20098;-76
2021/07/29 11:30:12;;;;;;;15.85;3.47;;;;;11.50;101471.00;;;;5091546;28;20122;-78
2021/07/29 11:32:40;;;;;;;9.43;2.90;;;;;12.20;101456.00;;;;5108695;28;20391;-78
2021/07/29 11:35:09;;;;;;;10.85;3.22;;;;;12.20;101471.00;;;;5110334;28;20042;-75
2021/07/29 11:37:40;;;;;;;12.32;3.47;;;;;12.70;101476.00;;;;5110743;28;20028;-77
2021/07/29 11:40:17;;;;;;;15.45;3.30;;;;;12.40;101526.00;;;;5110260;28;20512;-77
2021/07/29 11:42:44;;;;;;;20.58;3.35;;;;;12.80;101498.00;;;;5091754;28;20044;-78
2021/07/29 11:45:32;;;;;;;17.77;4.18;;;;;13.00;101499.00;;;;5111269;28;20055;-79
2021/07/29 11:48:00;;;;;;;12.23;3.88;;;;;12.90;101457.00;;;;5110626;28;20024;-76
2021/07/29 11:50:40;;;;;;;6.88;2.70;;;;;13.60;101476.00;;;;5094324;28;20119;-76
2021/07/29 11:53:08;;;;;;;8.27;3.08;;;;;13.20;101503.00;;;;5091956;28;20031;-75
2021/07/29 11:55:36;;;;;;;25.45;4.53;;;;;13.30;101511.00;;;;5110388;28;20046;-78
2021/07/29 11:58:10;;;;;;;635.10;148.52;;;;;13.70;101501.00;;;;5110675;28;20031;-77
2021/07/29 12:00:37;;;;;;;11.88;3.15;;;;;13.60;101475.00;;;;5110597;28;20035;-76
2021/07/29 12:03:07;;;;;;;10.20;3.08;;;;;14.00;101460.00;;;;5091731;28;20035;-77
2021/07/29 12:05:35;;;;;;;31.95;4.57;;;;;14.00;101475.00;;;;5091958;28;20051;-77
2021/07/29 12:08:03;;;;;;;4.47;2.10;;;;;14.20;101492.00;;;;5110501;28;20028;-76
2021/07/29 12:10:32;;;;;;;16.88;3.65;;;;;14.50;101459.00;;;;5112329;28;20206;-76
2021/07/29 12:12:59;;;;;;;8.98;2.70;;;;;14.80;101484.00;;;;5110107;28;20027;-75
2021/07/29 12:15:25;;;;;;;5.88;2.42;;;;;15.00;101523.00;;;;5112008;28;20062;-76
2021/07/29 12:17:52;;;;;;;7.85;2.70;;;;;14.80;101531.00;;;;5109924;28;20102;-77
2021/07/29 12:20:20;;;;;;;15.93;3.50;;;;;15.10;101524.00;;;;5109488;28;20466;-73
2021/07/29 12:22:47;;;;;;;12.43;2.97;;;;;15.30;101541.00;;;;5109376;28;20050;-76
2021/07/29 12:25:33;;;;;;;14.48;2.83;;;;;16.10;101563.00;;;;5110038;28;20052;-77
2021/07/29 12:28:00;;;;;;;20.33;4.20;;;;;15.60;101519.00;;;;5091489;28;20028;-77